Time;durP1;ratioP1;P1;durP2;ratioP2;P2;SDS_P1;SDS_P2;PMS_P1;PMS_P2;Temp;Humidity;BMP_temperature;BMP_pressure;BME280_temperature;BME280_humidity;BME280_pressure;Samples;Min_cycle;Max_cycle;Signal;HPM_P1;HPM_P2
2021/12/22 00:01:36;;;;;;;60.15;28.27;;;;;;;-1.22;78.60;102403.16;3589031;40;20124;-63
2021/12/22 00:04:03;;;;;;;62.38;28.13;;;;;;;-1.25;78.22;102408.41;3590546;39;20129;-63
2021/12/22 00:06:31;;;;;;;61.53;29.60;;;;;;;-1.21;78.23;102410.19;3586639;40;20052;-63
2021/12/22 00:08:58;;;;;;;64.88;30.00;;;;;;;-1.20;77.95;102417.28;3586590;40;20054;-63
2021/12/22 00:11:25;;;;;;;54.10;28.00;;;;;;;-1.51;78.01;102367.66;3588313;40;20361;-63
2021/12/22 00:13:52;;;;;;;59.85;27.90;;;;;;;-1.25;77.51;102413.69;3586056;40;20111;-64
2021/12/22 00:16:17;;;;;;;58.30;28.30;;;;;;;-1.27;78.45;102404.88;3589283;39;20059;-63
2021/12/22 00:18:43;;;;;;;58.08;29.40;;;;;;;-1.31;77.34;102410.97;3589996;39;20052;-64
2021/12/22 00:21:10;;;;;;;62.53;28.90;;;;;;;-1.34;77.83;102403.00;3593438;40;20052;-64
2021/12/22 00:23:37;;;;;;;55.70;27.80;;;;;;;-1.37;77.99;102407.38;3588305;39;20056;-64
2021/12/22 00:26:04;;;;;;;56.63;28.15;;;;;;;-1.41;77.09;102409.97;3589147;39;20048;-64
2021/12/22 00:28:32;;;;;;;63.97;29.05;;;;;;;-1.44;77.32;102414.31;3585023;39;20122;-64
2021/12/22 00:30:59;;;;;;;57.05;27.80;;;;;;;-1.50;78.21;102404.56;3593394;39;20054;-64
2021/12/22 00:33:27;;;;;;;56.20;26.83;;;;;;;-1.47;77.97;102409.00;3589628;39;20275;-64
2021/12/22 00:35:53;;;;;;;65.13;29.92;;;;;;;-1.48;78.09;102412.50;3587607;39;20044;-63
2021/12/22 00:38:21;;;;;;;62.20;27.60;;;;;;;-1.49;78.72;102408.09;3593578;40;20311;-64
2021/12/22 00:40:48;;;;;;;60.22;28.00;;;;;;;-1.52;77.60;102411.59;3587002;40;20048;-64
2021/12/22 00:43:17;;;;;;;57.38;28.25;;;;;;;-1.54;77.66;102409.78;3590993;39;20060;-63
2021/12/22 00:45:43;;;;;;;57.95;27.67;;;;;;;-1.65;77.82;102401.72;3589729;40;20060;-63
2021/12/22 00:48:11;;;;;;;57.10;27.83;;;;;;;-1.56;78.17;102411.50;3584012;40;20059;-64
2021/12/22 00:50:40;;;;;;;55.38;26.02;;;;;;;-1.56;77.34;102412.41;3586887;40;20067;-64
2021/12/22 00:53:06;;;;;;;59.63;27.60;;;;;;;-1.54;77.28;102407.16;3583943;39;20091;-63
2021/12/22 00:55:32;;;;;;;58.22;26.75;;;;;;;-1.87;77.67;102345.22;3588809;39;20118;-64
2021/12/22 00:57:58;;;;;;;54.25;27.35;;;;;;;-1.70;78.32;102377.06;3589435;40;20055;-64
2021/12/22 01:00:26;;;;;;;56.28;27.23;;;;;;;-1.53;77.56;102407.16;3592188;39;20044;-64
2021/12/22 01:02:53;;;;;;;56.05;26.77;;;;;;;-1.56;78.23;102401.84;3593901;39;20064;-64
2021/12/22 01:05:19;;;;;;;56.47;26.80;;;;;;;-1.55;78.10;102408.03;3582998;40;20287;-64
2021/12/22 01:07:48;;;;;;;60.17;26.63;;;;;;;-1.58;77.82;102408.00;3583613;40;20349;-64
2021/12/22 01:10:17;;;;;;;50.95;25.75;;;;;;;-1.58;77.47;102414.16;3583790;40;20289;-63
2021/12/22 01:12:43;;;;;;;52.05;25.80;;;;;;;-2.21;77.70;102299.94;3589305;39;20129;-64
2021/12/22 01:15:11;;;;;;;51.30;24.50;;;;;;;-1.72;76.87;102392.84;3587146;39;20055;-64
2021/12/22 01:17:42;;;;;;;54.65;25.20;;;;;;;-1.61;77.13;102410.59;3588664;39;20063;-64
2021/12/22 01:20:31;;;;;;;55.08;25.65;;;;;;;-1.65;76.92;102409.63;3590822;39;20048;-64
2021/12/22 01:23:04;;;;;;;50.33;24.67;;;;;;;-1.66;77.32;102403.47;3584916;40;20052;-64
2021/12/22 01:25:42;;;;;;;50.50;25.88;;;;;;;-1.70;77.65;102395.50;3585660;40;20052;-64
2021/12/22 01:28:08;;;;;;;53.53;26.13;;;;;;;-1.73;77.33;102390.19;3587139;39;20048;-63
2021/12/22 01:30:36;;;;;;;57.20;26.83;;;;;;;-1.65;77.53;102402.63;3588064;40;20056;-63
2021/12/22 01:33:03;;;;;;;53.83;25.15;;;;;;;-1.62;77.84;102388.56;3584554;40;20400;-64
2021/12/22 01:35:33;;;;;;;55.55;27.20;;;;;;;-1.58;78.47;102393.06;3585526;40;20051;-64
2021/12/22 01:38:00;;;;;;;53.72;26.05;;;;;;;-1.54;78.83;102399.25;3588011;39;20044;-64
2021/12/22 01:40:26;;;;;;;50.75;24.50;;;;;;;-1.50;77.61;102401.03;3593699;39;20044;-64
2021/12/22 01:42:57;;;;;;;48.88;25.00;;;;;;;-1.51;77.88;102396.66;3586696;40;20075;-64
2021/12/22 01:45:52;;;;;;;47.10;24.40;;;;;;;-1.56;77.24;102396.56;3587882;39;20568;-64
2021/12/22 01:51:26;;;;;;;;;;;;;;;-1.68;77.09;102386.78;3591955;40;20054;-62
2021/12/22 01:54:01;;;;;;;53.65;24.20;;;;;;;-1.72;77.63;102390.19;3584252;39;20254;-63
2021/12/22 01:56:29;;;;;;;47.85;24.00;;;;;;;-1.76;77.21;102383.13;3588742;40;20339;-64
2021/12/22 01:58:59;;;;;;;59.03;24.77;;;;;;;-1.73;77.28;102382.28;3593209;40;20044;-64
2021/12/22 02:01:29;;;;;;;48.90;23.85;;;;;;;-1.70;78.63;102382.34;3590637;39;20052;-63
2021/12/22 02:03:55;;;;;;;51.92;24.00;;;;;;;-1.66;78.94;102382.38;3591718;39;20121;-63
2021/12/22 02:06:22;;;;;;;49.92;24.33;;;;;;;-1.65;77.64;102385.91;3624809;22;20044;-63
2021/12/22 02:08:48;;;;;;;52.50;24.58;;;;;;;-1.80;77.59;102360.25;3583846;40;20107;-63
2021/12/22 02:11:17;;;;;;;48.65;23.52;;;;;;;-1.59;77.81;102398.28;3583715;40;20048;-63
2021/12/22 02:13:47;;;;;;;46.15;22.75;;;;;;;-1.54;78.00;102409.78;3584011;40;20091;-63
2021/12/22 02:16:16;;;;;;;48.35;22.58;;;;;;;-1.77;76.77;102369.94;3581843;40;20126;-62
2021/12/22 02:18:51;;;;;;;48.85;23.23;;;;;;;-1.65;76.29;102399.06;3574355;40;20056;-63
2021/12/22 02:21:18;;;;;;;43.72;21.95;;;;;;;-1.70;76.62;102379.69;3578664;40;20111;-63
2021/12/22 02:23:44;;;;;;;45.15;22.65;;;;;;;-1.57;76.44;102410.63;3577919;40;20056;-65
2021/12/22 02:28:38;;;;;;;43.22;22.00;;;;;;;-1.59;76.39;102407.06;3582559;40;20273;-66
2021/12/22 02:31:04;;;;;;;44.95;22.73;;;;;;;-1.68;76.75;102396.41;3578601;40;20134;-63
2021/12/22 02:38:37;;;;;;;45.05;21.73;;;;;;;-1.70;77.53;102404.31;3584289;40;20044;-63
2021/12/22 02:41:08;;;;;;;45.60;22.15;;;;;;;-1.69;77.26;102398.16;3577745;40;20414;-63
2021/12/22 02:43:35;;;;;;;41.78;22.70;;;;;;;-1.71;76.66;102386.72;3577814;40;20469;-63
2021/12/22 02:46:01;;;;;;;42.75;21.73;;;;;;;-1.63;77.79;102400.00;3579895;40;20053;-63
2021/12/22 02:48:32;;;;;;;43.25;21.63;;;;;;;-1.69;76.72;102387.63;3582898;40;20059;-63
2021/12/22 02:51:01;;;;;;;41.28;21.33;;;;;;;-1.60;76.89;102400.03;3579638;40;20390;-63
2021/12/22 02:53:50;;;;;;;45.38;22.10;;;;;;;-1.67;77.76;102388.53;3576920;40;20055;-62
2021/12/22 03:03:58;;;;;;;43.92;21.45;;;;;;;-1.87;77.39;102354.00;3583165;40;20057;-62
2021/12/22 03:06:32;;;;;;;41.80;21.42;;;;;;;-1.74;77.02;102370.88;3579984;40;20056;-66
2021/12/22 03:08:59;;;;;;;43.00;20.42;;;;;;;-1.68;76.88;102380.59;3579844;40;20048;-62
2021/12/22 03:11:25;;;;;;;42.08;20.13;;;;;;;-1.65;77.55;102402.63;3578890;40;20055;-62
2021/12/22 03:13:51;;;;;;;38.70;20.60;;;;;;;-1.68;76.49;102399.03;3582871;40;20405;-62
2021/12/22 03:16:18;;;;;;;40.15;20.10;;;;;;;-1.80;76.95;102386.59;3575871;40;20060;-62
2021/12/22 03:18:45;;;;;;;34.15;19.60;;;;;;;-1.83;75.68;102394.44;3580410;40;20060;-61
2021/12/22 03:21:21;;;;;;;41.63;19.15;;;;;;;-1.80;76.07;102405.03;3576504;40;20086;-62
2021/12/22 03:23:52;;;;;;;39.58;19.27;;;;;;;-1.82;75.96;102409.41;3580267;40;20386;-62
2021/12/22 03:26:19;;;;;;;36.47;19.42;;;;;;;-2.03;75.15;102394.16;3570848;40;20056;-61
2021/12/22 03:28:46;;;;;;;41.88;19.05;;;;;;;-2.00;75.17;102401.22;3579321;40;20044;-62
2021/12/22 03:31:12;;;;;;;39.78;21.05;;;;;;;-1.99;75.32;102405.63;3578073;40;20094;-62
2021/12/22 03:33:39;;;;;;;42.40;19.42;;;;;;;-2.18;74.75;102384.28;3572924;40;20053;-62
2021/12/22 03:36:05;;;;;;;38.92;19.38;;;;;;;-2.01;75.50;102412.63;3579128;40;20056;-62
2021/12/22 03:38:32;;;;;;;38.03;19.60;;;;;;;-2.21;76.04;102394.75;3580506;40;20300;-63
2021/12/22 03:40:59;;;;;;;43.03;19.90;;;;;;;-2.12;75.15;102415.97;3578847;40;20045;-62
2021/12/22 03:43:25;;;;;;;36.30;18.92;;;;;;;-2.08;74.94;102423.94;3575263;40;20401;-62
2021/12/22 03:45:50;;;;;;;37.42;18.08;;;;;;;-2.15;75.75;102410.66;3580192;40;20048;-62
2021/12/22 03:48:18;;;;;;;42.75;18.90;;;;;;;-2.47;76.10;102353.97;3574782;40;20055;-62
2021/12/22 03:50:44;;;;;;;40.95;20.35;;;;;;;-2.19;76.67;102403.59;3582152;40;20060;-62
2021/12/22 03:53:11;;;;;;;40.83;19.83;;;;;;;-2.21;77.27;102393.88;3578885;40;20067;-62
2021/12/22 03:55:37;;;;;;;37.25;19.50;;;;;;;-2.31;76.63;102377.03;3588320;40;20571;-61
2021/12/22 03:58:04;;;;;;;41.65;20.17;;;;;;;-2.20;77.32;102401.78;3582817;40;20671;-62
2021/12/22 04:00:31;;;;;;;45.35;23.23;;;;;;;-2.20;76.68;102400.91;3579700;40;20075;-63
2021/12/22 04:02:57;;;;;;;42.33;20.40;;;;;;;-2.22;76.81;102398.25;3577311;40;20103;-64
2021/12/22 04:05:23;;;;;;;36.75;19.00;;;;;;;-2.19;76.80;102413.19;3580724;40;20303;-63
2021/12/22 04:07:49;;;;;;;37.10;18.98;;;;;;;-2.29;76.97;102392.84;3580530;40;20056;-64
2021/12/22 04:10:20;;;;;;;40.85;20.92;;;;;;;-2.25;77.11;102407.84;3579411;40;20094;-64
2021/12/22 04:12:56;;;;;;;37.67;19.77;;;;;;;-2.25;77.32;102407.84;3579917;40;20053;-65
2021/12/22 04:15:26;;;;;;;39.00;20.33;;;;;;;-2.29;77.08;102401.63;3576067;40;20057;-64
2021/12/22 04:17:53;;;;;;;39.10;19.25;;;;;;;-2.24;76.93;102405.25;3576553;40;20415;-64
2021/12/22 04:20:20;;;;;;;34.13;19.60;;;;;;;-2.20;76.90;102401.78;3573769;40;20056;-64
2021/12/22 04:22:46;;;;;;;36.10;18.48;;;;;;;-2.16;76.87;102397.44;3577352;40;20108;-64
2021/12/22 04:25:20;;;;;;;38.13;19.35;;;;;;;-2.25;76.89;102376.22;3572879;40;20060;-64
2021/12/22 04:27:48;;;;;;;38.17;18.90;;;;;;;-2.24;77.62;102373.63;3572728;40;20057;-65
2021/12/22 04:30:14;;;;;;;37.17;19.10;;;;;;;-2.11;77.69;102386.13;3575567;40;20112;-64
2021/12/22 04:32:40;;;;;;;35.72;18.45;;;;;;;-2.14;77.43;102391.34;3581018;40;20053;-64
2021/12/22 04:35:06;;;;;;;31.77;18.20;;;;;;;-2.15;77.11;102376.41;3579465;40;20056;-65
2021/12/22 04:37:32;;;;;;;37.33;18.38;;;;;;;-2.07;76.91;102375.63;3581370;40;20055;-69
2021/12/22 04:39:57;;;;;;;34.65;17.55;;;;;;;-2.07;77.10;102373.00;3576567;40;20060;-65
2021/12/22 04:42:23;;;;;;;38.05;18.30;;;;;;;-2.05;77.45;102372.16;3576653;40;20060;-64
2021/12/22 04:44:52;;;;;;;45.67;22.55;;;;;;;-2.00;77.16;102378.38;3579297;40;20056;-65
2021/12/22 04:47:19;;;;;;;42.53;21.85;;;;;;;-2.04;77.73;102362.50;3577491;40;21264;-65
2021/12/22 04:49:45;;;;;;;35.13;18.55;;;;;;;-2.08;77.23;102358.94;3577583;40;20628;-64
2021/12/22 04:52:15;;;;;;;38.40;19.02;;;;;;;-2.07;77.34;102355.44;3576388;40;20084;-65
2021/12/22 04:54:49;;;;;;;35.17;18.10;;;;;;;-1.94;77.11;102378.47;3578013;40;20483;-65
2021/12/22 04:57:15;;;;;;;30.90;16.73;;;;;;;-1.93;76.94;102379.38;3575235;40;20049;-65
2021/12/22 04:59:41;;;;;;;34.17;17.58;;;;;;;-1.99;76.75;102366.13;3574725;40;20047;-65
2021/12/22 05:02:06;;;;;;;33.47;17.90;;;;;;;-1.99;76.54;102368.75;3575727;40;20280;-63
2021/12/22 05:04:32;;;;;;;32.72;17.65;;;;;;;-2.03;76.40;102356.38;3576833;40;20084;-66
2021/12/22 05:06:57;;;;;;;35.78;17.60;;;;;;;-1.93;76.44;102372.34;3578017;40;20057;-64
2021/12/22 05:09:23;;;;;;;35.55;17.02;;;;;;;-1.97;77.21;102359.09;3577212;40;20423;-64
2021/12/22 05:11:50;;;;;;;32.47;17.42;;;;;;;-1.99;77.24;102352.94;3573981;40;20065;-65
2021/12/22 05:14:16;;;;;;;30.33;16.92;;;;;;;-1.96;77.04;102352.97;3575221;40;20057;-66
2021/12/22 05:16:46;;;;;;;34.90;17.10;;;;;;;-2.00;77.24;102353.78;3576249;40;20300;-64
2021/12/22 05:19:16;;;;;;;35.25;16.67;;;;;;;-2.05;76.97;102342.31;3574605;40;20057;-64
2021/12/22 05:21:45;;;;;;;35.38;19.50;;;;;;;-2.14;76.78;102322.84;3574501;40;20735;-64
2021/12/22 05:24:11;;;;;;;31.50;15.98;;;;;;;-2.08;76.62;102332.59;3576316;40;20060;-65
2021/12/22 05:26:37;;;;;;;35.80;16.80;;;;;;;-1.96;76.87;102364.41;3574439;40;20084;-64
2021/12/22 05:29:04;;;;;;;35.90;15.98;;;;;;;-2.07;76.41;102347.53;3574654;40;20056;-64
2021/12/22 05:31:30;;;;;;;27.67;15.68;;;;;;;-1.99;76.46;102363.47;3576337;40;20048;-65
2021/12/22 05:33:56;;;;;;;29.67;15.93;;;;;;;-2.02;76.16;102360.78;3576620;40;20092;-64
2021/12/22 05:36:22;;;;;;;31.65;15.82;;;;;;;-2.06;76.62;102351.06;3576363;40;20092;-64
2021/12/22 05:38:47;;;;;;;29.20;15.70;;;;;;;-2.08;76.72;102342.25;3576201;40;20059;-65
2021/12/22 05:41:13;;;;;;;29.77;15.63;;;;;;;-1.99;76.16;102356.44;3578865;40;20421;-64
2021/12/22 05:43:39;;;;;;;29.60;16.02;;;;;;;-2.11;76.18;102332.56;3575129;40;20052;-65
2021/12/22 05:46:04;;;;;;;29.80;15.25;;;;;;;-2.06;76.41;102335.25;3575776;40;20381;-64
2021/12/22 05:48:30;;;;;;;26.00;14.88;;;;;;;-2.02;76.78;102334.44;3576975;40;20052;-64
2021/12/22 05:50:58;;;;;;;27.73;14.23;;;;;;;-2.06;76.33;102325.63;3576835;40;20052;-65
2021/12/22 05:53:25;;;;;;;31.00;16.15;;;;;;;-1.95;76.10;102344.19;3577412;40;20161;-64
2021/12/22 05:55:52;;;;;;;31.30;15.50;;;;;;;-2.20;76.79;102300.81;3579570;40;20376;-64
2021/12/22 05:58:18;;;;;;;29.35;14.25;;;;;;;-1.98;76.44;102333.63;3574435;40;20056;-65
2021/12/22 06:00:44;;;;;;;22.88;14.15;;;;;;;-2.17;75.54;102301.75;3576961;40;20056;-65
2021/12/22 06:03:10;;;;;;;26.60;14.23;;;;;;;-2.17;75.56;102312.28;3574932;40;20067;-65
2021/12/22 06:05:37;;;;;;;27.05;14.40;;;;;;;-1.98;75.36;102338.88;3575650;40;20048;-64
2021/12/22 06:08:04;;;;;;;27.02;13.68;;;;;;;-2.00;75.28;102335.34;3576311;40;20111;-64
2021/12/22 06:10:34;;;;;;;26.83;14.18;;;;;;;-1.99;75.76;102343.28;3581147;40;20093;-64
2021/12/22 06:13:01;;;;;;;23.33;13.15;;;;;;;-1.99;75.52;102345.91;3574798;40;20076;-66
2021/12/22 06:15:26;;;;;;;25.70;13.43;;;;;;;-1.99;75.04;102352.94;3572454;40;20051;-69
2021/12/22 06:17:55;;;;;;;29.20;14.32;;;;;;;-2.07;75.60;102338.75;3575468;40;20045;-66
2021/12/22 06:20:21;;;;;;;25.20;13.00;;;;;;;-2.10;75.04;102335.19;3577265;40;20053;-66
2021/12/22 06:22:47;;;;;;;24.73;13.90;;;;;;;-2.25;74.47;102318.28;3574128;40;20063;-64
2021/12/22 06:25:12;;;;;;;26.35;13.98;;;;;;;-2.25;75.00;102329.72;3576359;40;20045;-64
2021/12/22 06:27:38;;;;;;;25.20;13.70;;;;;;;-2.26;74.49;102333.22;3578224;40;20060;-66
2021/12/22 06:30:04;;;;;;;25.90;14.38;;;;;;;-2.29;74.47;102334.91;3574517;40;20055;-65
2021/12/22 06:32:30;;;;;;;26.33;13.73;;;;;;;-2.25;74.50;102340.28;3574585;40;20059;-65
2021/12/22 06:34:55;;;;;;;24.85;13.23;;;;;;;-2.24;74.16;102343.78;3574418;40;20057;-65
2021/12/22 06:37:21;;;;;;;24.95;13.57;;;;;;;-2.26;74.83;102342.88;3578105;40;20060;-65
2021/12/22 06:39:47;;;;;;;25.95;14.25;;;;;;;-2.30;73.51;102352.47;3575822;40;20060;-65
2021/12/22 06:42:12;;;;;;;24.17;13.18;;;;;;;-2.35;73.67;102354.13;3577307;40;20056;-63
2021/12/22 06:44:38;;;;;;;26.27;13.18;;;;;;;-2.40;74.17;102342.66;3574441;40;20175;-64
2021/12/22 06:47:04;;;;;;;25.98;13.48;;;;;;;-2.41;74.45;102344.41;3577695;40;20077;-65
2021/12/22 06:49:30;;;;;;;25.20;13.05;;;;;;;-2.49;75.43;102324.06;3576000;40;20134;-64
2021/12/22 06:51:55;;;;;;;24.98;13.63;;;;;;;-2.30;76.27;102357.72;3574134;40;20084;-65
2021/12/22 06:54:21;;;;;;;25.77;12.80;;;;;;;-2.27;75.85;102362.16;3577924;40;20120;-65
2021/12/22 06:56:47;;;;;;;22.50;13.02;;;;;;;-2.33;76.39;102341.88;3577838;40;20059;-65
2021/12/22 06:59:14;;;;;;;22.63;12.73;;;;;;;-2.26;75.61;102353.41;3576965;40;20045;-65
2021/12/22 07:01:40;;;;;;;23.05;12.85;;;;;;;-2.65;76.51;102286.97;3574314;40;20519;-65
2021/12/22 07:04:05;;;;;;;20.67;12.13;;;;;;;-2.20;76.00;102359.63;3575738;40;20061;-64
2021/12/22 07:06:31;;;;;;;23.20;13.18;;;;;;;-2.27;76.13;102341.97;3578503;40;20068;-66
2021/12/22 07:08:58;;;;;;;27.42;14.75;;;;;;;-2.29;76.41;102338.44;3574992;40;20158;-66
2021/12/22 07:11:25;;;;;;;24.98;13.55;;;;;;;-2.21;76.33;102352.63;3578591;40;20053;-64
2021/12/22 07:13:50;;;;;;;26.52;13.98;;;;;;;-2.23;75.33;102349.06;3578931;40;20365;-65
2021/12/22 07:16:16;;;;;;;25.83;13.60;;;;;;;-2.43;75.77;102318.91;3575978;40;20068;-65
2021/12/22 07:18:42;;;;;;;29.35;13.82;;;;;;;-2.19;76.09;102357.88;3576065;40;20052;-64
2021/12/22 07:21:08;;;;;;;26.90;14.13;;;;;;;-2.18;75.88;102357.06;3572876;40;20330;-64
2021/12/22 07:23:34;;;;;;;32.15;13.57;;;;;;;-2.17;76.46;102343.88;3583664;40;20071;-64
2021/12/22 07:26:00;;;;;;;20.95;12.60;;;;;;;-2.23;76.83;102333.25;3574736;40;20060;-68
2021/12/22 07:28:25;;;;;;;23.92;12.60;;;;;;;-2.13;76.90;102345.69;3578934;40;20091;-66
2021/12/22 07:30:51;;;;;;;23.23;12.82;;;;;;;-2.08;76.49;102352.81;3580277;40;20063;-63
2021/12/22 07:33:18;;;;;;;26.98;12.88;;;;;;;-2.05;76.25;102359.00;3577243;40;20045;-64
2021/12/22 07:35:58;;;;;;;22.75;11.70;;;;;;;-2.03;75.99;102351.09;3576885;40;20464;-65
2021/12/22 07:38:51;;;;;;;24.02;11.80;;;;;;;-2.07;76.20;102342.28;3583113;40;20053;-64
2021/12/22 07:41:17;;;;;;;25.98;11.82;;;;;;;-1.97;76.38;102353.81;3582251;40;20093;-65
2021/12/22 07:43:43;;;;;;;19.77;11.65;;;;;;;-2.00;75.83;102343.25;3576420;40;20060;-64
2021/12/22 07:46:09;;;;;;;20.42;11.88;;;;;;;-1.99;75.71;102352.94;3580093;40;20509;-65
2021/12/22 07:48:36;;;;;;;22.83;11.35;;;;;;;-2.01;74.93;102349.38;3581546;40;20421;-67
2021/12/22 07:51:02;;;;;;;23.77;11.30;;;;;;;-2.04;75.20;102350.22;3583912;40;20060;-62
2021/12/22 07:53:28;;;;;;;25.15;12.43;;;;;;;-2.06;74.57;102348.41;3582576;40;20100;-63
2021/12/22 07:55:54;;;;;;;22.42;11.88;;;;;;;-2.12;75.68;102338.69;3582993;40;20477;-63
2021/12/22 07:58:24;;;;;;;22.25;12.95;;;;;;;-2.04;75.83;102349.34;3579672;40;20063;-63
2021/12/22 08:00:52;;;;;;;24.25;12.38;;;;;;;-1.96;76.52;102350.34;3576444;40;20052;-62
2021/12/22 08:03:18;;;;;;;22.73;11.85;;;;;;;-1.92;76.66;102338.97;3579221;40;20056;-62
2021/12/22 08:05:44;;;;;;;20.13;12.05;;;;;;;-1.95;76.50;102331.03;3582009;40;20158;-64
2021/12/22 08:08:10;;;;;;;24.38;13.20;;;;;;;-1.85;76.04;102348.72;3673335;22;20052;-63
2021/12/22 08:10:36;;;;;;;21.00;12.20;;;;;;;-1.81;76.61;102355.81;3583614;40;20063;-63
2021/12/22 08:13:02;;;;;;;25.83;12.15;;;;;;;-1.77;76.49;102349.72;3584390;40;20095;-63
2021/12/22 08:15:28;;;;;;;18.23;10.98;;;;;;;-1.74;75.70;102347.16;3583441;40;20056;-63
2021/12/22 08:17:54;;;;;;;19.17;11.10;;;;;;;-1.70;76.24;102346.31;3580285;40;20683;-63
2021/12/22 08:20:22;;;;;;;24.33;11.38;;;;;;;-1.71;76.67;102338.41;3577935;40;20060;-63
2021/12/22 08:22:48;;;;;;;25.55;12.05;;;;;;;-1.60;76.62;102343.78;3579816;40;20078;-64
2021/12/22 08:25:13;;;;;;;20.00;11.45;;;;;;;-1.57;76.22;102342.06;3579923;40;20407;-63
2021/12/22 08:27:39;;;;;;;16.25;10.63;;;;;;;-1.50;75.97;102343.03;3580510;40;20131;-63
2021/12/22 08:30:07;;;;;;;22.02;11.18;;;;;;;-1.76;76.44;102298.78;3578853;40;20072;-63
2021/12/22 08:32:34;;;;;;;21.88;10.65;;;;;;;-1.41;76.48;102344.03;3577291;40;20060;-63
2021/12/22 08:35:02;;;;;;;28.75;11.77;;;;;;;-1.34;75.47;102349.38;3579926;40;20095;-63
2021/12/22 08:40:17;;;;;;;20.27;10.63;;;;;;;-1.25;74.73;102352.13;3581056;40;20362;-63
2021/12/22 08:42:44;;;;;;;22.38;11.95;;;;;;;-1.22;75.16;102345.13;3579003;40;20048;-63
2021/12/22 08:45:12;;;;;;;17.92;10.77;;;;;;;-1.18;75.77;102344.28;3575009;40;20058;-63
2021/12/22 08:47:38;;;;;;;22.45;11.10;;;;;;;-1.14;75.23;102347.88;3579695;40;20056;-64
2021/12/22 08:50:11;;;;;;;19.92;10.75;;;;;;;-1.10;74.15;102341.75;3573617;40;20059;-63
2021/12/22 08:52:38;;;;;;;18.17;10.93;;;;;;;-1.07;74.92;102336.50;3576299;40;20063;-63
2021/12/22 08:55:05;;;;;;;19.73;11.25;;;;;;;-1.03;74.06;102346.22;3579986;40;20047;-64
2021/12/22 08:57:31;;;;;;;21.48;11.73;;;;;;;-1.05;74.69;102334.75;3579931;40;20052;-63
2021/12/22 08:59:57;;;;;;;16.75;10.60;;;;;;;-0.96;75.02;102337.47;3581025;40;20092;-64
2021/12/22 09:02:23;;;;;;;18.02;10.30;;;;;;;-0.90;74.38;102346.34;3578059;40;20141;-64
2021/12/22 09:04:49;;;;;;;19.52;10.20;;;;;;;-0.83;74.63;102338.47;3577559;40;20466;-63
2021/12/22 09:07:15;;;;;;;21.42;11.23;;;;;;;-0.77;74.86;102337.66;3581444;40;20059;-64
2021/12/22 09:09:40;;;;;;;17.48;10.93;;;;;;;-0.72;73.65;102338.59;3582063;40;20052;-64
2021/12/22 09:12:07;;;;;;;20.30;10.95;;;;;;;-0.69;73.57;102338.63;3578708;40;20048;-63
2021/12/22 09:14:34;;;;;;;22.15;10.38;;;;;;;-0.64;74.57;102341.28;3578388;40;20063;-66
2021/12/22 09:17:00;;;;;;;18.80;11.20;;;;;;;-0.73;73.41;102316.59;3579347;40;20060;-62
2021/12/22 09:19:26;;;;;;;21.38;11.15;;;;;;;-0.56;74.01;102331.69;3579877;40;20152;-62
2021/12/22 09:21:52;;;;;;;20.75;11.65;;;;;;;-0.55;72.70;102328.19;3580938;40;20413;-61
2021/12/22 09:24:19;;;;;;;19.70;10.70;;;;;;;-0.55;73.57;102317.63;3572689;40;20171;-63
2021/12/22 09:26:45;;;;;;;21.92;11.50;;;;;;;-0.65;73.28;102305.22;3576529;40;20488;-63
2021/12/22 09:29:11;;;;;;;21.27;11.77;;;;;;;-0.41;73.44;102341.47;3578283;40;20048;-64
2021/12/22 09:31:38;;;;;;;19.45;11.60;;;;;;;-0.33;73.25;102335.38;3577422;40;20049;-62
2021/12/22 09:34:06;;;;;;;18.40;11.52;;;;;;;-0.34;73.41;102320.41;3578751;40;20068;-62
2021/12/22 09:36:32;;;;;;;18.83;11.13;;;;;;;-0.19;73.60;102338.16;3577717;40;20064;-63
2021/12/22 09:38:58;;;;;;;17.35;11.00;;;;;;;-0.14;73.29;102336.41;3577473;40;20078;-63
2021/12/22 09:41:24;;;;;;;29.48;11.10;;;;;;;-0.06;73.60;102326.78;3581043;40;20054;-63
2021/12/22 09:43:52;;;;;;;21.63;11.52;;;;;;;0.02;73.16;102326.81;3583738;40;20398;-63
2021/12/22 09:46:21;;;;;;;15.77;9.93;;;;;;;0.12;72.98;102325.09;3583840;40;20048;-63
2021/12/22 09:48:51;;;;;;;26.60;11.38;;;;;;;0.19;71.48;102319.88;3584000;40;20044;-63
2021/12/22 09:53:52;;;;;;;14.30;10.00;;;;;;;0.43;72.22;102318.22;3583425;40;20040;-65
2021/12/22 09:56:27;;;;;;;25.73;10.40;;;;;;;0.51;71.26;102313.84;3583205;40;20096;-63
2021/12/22 09:58:54;;;;;;;16.17;9.70;;;;;;;0.60;71.19;102318.25;3582196;40;20113;-63
2021/12/22 10:01:23;;;;;;;18.35;9.63;;;;;;;0.73;70.61;102313.88;3579062;40;20044;-63
2021/12/22 10:03:56;;;;;;;20.67;9.57;;;;;;;0.64;69.90;102294.47;3582636;40;20078;-64
2021/12/22 10:06:22;;;;;;;15.18;9.02;;;;;;;0.97;69.03;102324.53;3580077;40;20072;-64
2021/12/22 10:09:00;;;;;;;17.02;9.77;;;;;;;1.05;69.14;102320.16;3569714;40;20418;-64
2021/12/22 10:11:32;;;;;;;18.55;9.38;;;;;;;1.09;69.16;102311.31;3578700;40;20119;-63
2021/12/22 10:13:58;;;;;;;15.82;9.77;;;;;;;1.09;67.33;102306.03;3579550;40;20127;-62
2021/12/22 10:16:28;;;;;;;15.57;8.98;;;;;;;1.11;68.71;102304.28;3581528;40;20155;-63
2021/12/22 10:19:09;;;;;;;18.92;9.27;;;;;;;1.13;68.33;102299.84;3578923;40;20138;-63
2021/12/22 10:21:51;;;;;;;16.85;8.82;;;;;;;1.24;67.84;102298.97;3583144;40;20058;-63
2021/12/22 10:24:17;;;;;;;18.38;10.20;;;;;;;1.28;67.55;102306.06;3583121;40;20117;-64
2021/12/22 10:26:43;;;;;;;15.88;9.25;;;;;;;1.36;68.01;102306.91;3579854;40;20052;-64
2021/12/22 10:29:09;;;;;;;15.98;9.55;;;;;;;1.45;66.73;102298.97;3578573;40;20381;-65
2021/12/22 10:31:43;;;;;;;19.80;8.98;;;;;;;1.55;67.32;102300.72;3582296;40;20101;-65
2021/12/22 10:34:17;;;;;;;15.40;9.20;;;;;;;1.59;67.29;102297.22;3580369;40;20076;-64
2021/12/22 10:36:47;;;;;;;17.17;9.60;;;;;;;1.66;66.67;102284.81;3579041;40;20061;-63
2021/12/22 10:39:34;;;;;;;15.70;8.98;;;;;;;1.85;66.28;102294.50;3580093;40;20096;-64
2021/12/22 10:42:09;;;;;;;15.18;8.98;;;;;;;2.06;65.35;102290.03;3572528;40;20402;-64
2021/12/22 10:44:40;;;;;;;17.15;9.40;;;;;;;2.15;65.68;102289.13;3585922;40;20056;-64
2021/12/22 10:47:14;;;;;;;11.95;8.32;;;;;;;2.30;65.19;102281.09;3585642;40;20068;-64
2021/12/22 10:49:40;;;;;;;15.43;8.60;;;;;;;2.51;65.02;102281.00;3584142;40;20071;-66
2021/12/22 10:52:05;;;;;;;15.48;9.15;;;;;;;2.66;63.78;102263.22;3581784;40;20059;-65
2021/12/22 10:54:37;;;;;;;19.27;9.35;;;;;;;2.86;63.48;102266.66;3585503;40;20056;-64
2021/12/22 10:57:12;;;;;;;14.60;8.68;;;;;;;3.01;62.67;102261.25;3580713;40;20092;-63
2021/12/22 10:59:53;;;;;;;19.63;11.10;;;;;;;2.45;61.56;102126.25;3585052;40;20056;-66
2021/12/22 11:02:34;;;;;;;16.27;9.18;;;;;;;3.28;60.80;102247.72;3577700;40;20053;-63
2021/12/22 11:05:03;;;;;;;18.02;8.43;;;;;;;3.33;60.51;102252.13;3583544;40;20089;-64
2021/12/22 11:07:39;;;;;;;16.55;8.48;;;;;;;3.38;59.88;102244.97;3582762;40;20062;-63
2021/12/22 11:10:24;;;;;;;14.35;8.63;;;;;;;3.26;60.43;102213.19;3578238;40;20053;-64
2021/12/22 11:13:04;;;;;;;12.52;7.93;;;;;;;3.65;59.10;102258.91;3575675;40;20084;-64
2021/12/22 11:15:40;;;;;;;12.18;7.53;;;;;;;3.78;59.58;102257.00;3583513;40;20121;-63
2021/12/22 11:18:24;;;;;;;11.18;7.97;;;;;;;3.99;58.29;102247.88;3582543;40;20284;-63
2021/12/22 11:21:13;;;;;;;15.45;8.60;;;;;;;4.17;57.99;102245.88;3582941;40;20056;-63
2021/12/22 11:23:40;;;;;;;18.73;8.02;;;;;;;4.28;57.82;102245.78;3582703;40;20053;-64
2021/12/22 11:26:07;;;;;;;13.98;8.30;;;;;;;4.37;57.53;102248.28;3581962;40;20052;-64
2021/12/22 11:28:34;;;;;;;13.77;8.65;;;;;;;4.38;57.62;102220.78;3577407;40;20052;-64
2021/12/22 11:31:02;;;;;;;15.05;8.57;;;;;;;4.58;58.11;102233.81;3578290;40;20055;-64
2021/12/22 11:33:30;;;;;;;14.52;8.32;;;;;;;4.57;57.07;102225.84;3579403;40;20048;-63
2021/12/22 11:35:58;;;;;;;16.88;9.93;;;;;;;4.41;56.81;102194.13;3582219;40;20052;-63
2021/12/22 11:38:26;;;;;;;17.42;9.63;;;;;;;4.70;56.63;102232.75;3580662;40;20060;-63
2021/12/22 11:40:56;;;;;;;12.77;8.05;;;;;;;4.73;56.21;102229.16;3580485;40;20059;-63